sensor_id;sensor_type;location;lat;lon;timestamp;noise_LAeq;noise_LA_min;noise_LA_max;noise_LA01;noise_LA95
71628;Laerm;59477;52.374;9.916;2023-02-28T00:00:13;49.88;35.38;61.17;;
71628;Laerm;59477;52.374;9.916;2023-02-28T00:02:13;51.89;34.33;61.12;;
71628;Laerm;59477;52.374;9.916;2023-02-28T00:04:14;45.90;34.54;57.44;;
71628;Laerm;59477;52.374;9.916;2023-02-28T00:06:15;51.40;36.12;60.58;;
71628;Laerm;59477;52.374;9.916;2023-02-28T00:08:15;43.67;33.65;54.73;;
71628;Laerm;59477;52.374;9.916;2023-02-28T00:10:20;48.46;33.43;57.12;;
71628;Laerm;59477;52.374;9.916;2023-02-28T00:12:21;39.01;33.09;45.81;;
71628;Laerm;59477;52.374;9.916;2023-02-28T00:14:21;43.15;35.76;53.69;;
71628;Laerm;59477;52.374;9.916;2023-02-28T00:16:22;52.76;36.47;68.22;;
71628;Laerm;59477;52.374;9.916;2023-02-28T00:18:22;40.35;35.73;44.35;;
71628;Laerm;59477;52.374;9.916;2023-02-28T00:20:23;46.05;37.21;53.69;;
71628;Laerm;59477;52.374;9.916;2023-02-28T00:22:24;45.89;35.65;55.19;;
71628;Laerm;59477;52.374;9.916;2023-02-28T00:24:24;38.47;33.31;46.77;;
71628;Laerm;59477;52.374;9.916;2023-02-28T00:26:25;54.01;35.76;67.44;;
71628;Laerm;59477;52.374;9.916;2023-02-28T00:28:26;49.90;34.92;66.94;;
71628;Laerm;59477;52.374;9.916;2023-02-28T00:30:26;39.98;34.51;51.17;;
71628;Laerm;59477;52.374;9.916;2023-02-28T00:32:27;41.02;34.89;48.47;;
71628;Laerm;59477;52.374;9.916;2023-02-28T00:34:27;50.68;40.29;59.83;;
71628;Laerm;59477;52.374;9.916;2023-02-28T00:36:28;39.62;35.68;45.61;;
71628;Laerm;59477;52.374;9.916;2023-02-28T00:38:29;40.73;35.46;49.72;;
71628;Laerm;59477;52.374;9.916;2023-02-28T00:40:30;45.87;36.30;53.19;;
71628;Laerm;59477;52.374;9.916;2023-02-28T00:42:30;56.71;37.03;65.45;;
71628;Laerm;59477;52.374;9.916;2023-02-28T00:44:31;42.52;36.29;48.63;;
71628;Laerm;59477;52.374;9.916;2023-02-28T00:46:32;49.46;37.19;58.08;;
71628;Laerm;59477;52.374;9.916;2023-02-28T00:48:33;42.14;37.15;49.81;;
71628;Laerm;59477;52.374;9.916;2023-02-28T00:50:33;51.21;39.27;58.79;;
71628;Laerm;59477;52.374;9.916;2023-02-28T00:52:34;44.93;37.45;54.92;;
71628;Laerm;59477;52.374;9.916;2023-02-28T00:54:37;52.97;39.04;60.99;;
71628;Laerm;59477;52.374;9.916;2023-02-28T00:56:38;41.70;36.19;47.08;;
71628;Laerm;59477;52.374;9.916;2023-02-28T00:58:44;42.19;35.54;48.99;;
71628;Laerm;59477;52.374;9.916;2023-02-28T01:00:52;52.26;35.29;63.66;;
71628;Laerm;59477;52.374;9.916;2023-02-28T01:02:54;41.79;36.10;47.38;;
71628;Laerm;59477;52.374;9.916;2023-02-28T01:04:54;52.40;41.99;62.22;;
71628;Laerm;59477;52.374;9.916;2023-02-28T01:06:55;40.97;35.46;54.10;;
71628;Laerm;59477;52.374;9.916;2023-02-28T01:08:55;41.23;35.94;63.77;;
71628;Laerm;59477;52.374;9.916;2023-02-28T01:10:56;50.69;34.53;62.10;;
71628;Laerm;59477;52.374;9.916;2023-02-28T01:12:57;52.35;36.79;61.71;;
71628;Laerm;59477;52.374;9.916;2023-02-28T01:14:58;38.06;33.90;44.47;;
71628;Laerm;59477;52.374;9.916;2023-02-28T01:16:59;40.76;35.45;50.64;;
71628;Laerm;59477;52.374;9.916;2023-02-28T01:18:59;45.99;34.72;54.70;;
71628;Laerm;59477;52.374;9.916;2023-02-28T01:21:04;56.77;45.06;67.28;;
71628;Laerm;59477;52.374;9.916;2023-02-28T01:23:05;48.74;38.51;59.45;;
71628;Laerm;59477;52.374;9.916;2023-02-28T01:25:06;51.56;37.46;60.50;;
71628;Laerm;59477;52.374;9.916;2023-02-28T01:27:07;49.65;39.52;58.94;;
71628;Laerm;59477;52.374;9.916;2023-02-28T01:29:08;43.24;37.46;52.43;;
71628;Laerm;59477;52.374;9.916;2023-02-28T01:31:09;44.83;38.05;51.95;;
71628;Laerm;59477;52.374;9.916;2023-02-28T01:33:09;41.99;35.79;51.80;;
71628;Laerm;59477;52.374;9.916;2023-02-28T01:35:10;53.55;36.96;62.52;;
71628;Laerm;59477;52.374;9.916;2023-02-28T01:37:11;51.76;42.06;58.51;;
71628;Laerm;59477;52.374;9.916;2023-02-28T01:39:11;41.27;37.04;46.81;;
71628;Laerm;59477;52.374;9.916;2023-02-28T01:41:17;50.45;39.13;59.11;;
71628;Laerm;59477;52.374;9.916;2023-02-28T01:43:25;42.93;36.93;51.35;;
71628;Laerm;59477;52.374;9.916;2023-02-28T01:45:27;53.09;41.06;62.31;;
71628;Laerm;59477;52.374;9.916;2023-02-28T01:47:30;45.51;36.09;52.03;;
71628;Laerm;59477;52.374;9.916;2023-02-28T01:49:34;43.11;33.38;54.04;;
71628;Laerm;59477;52.374;9.916;2023-02-28T01:51:37;51.44;39.39;61.30;;
71628;Laerm;59477;52.374;9.916;2023-02-28T01:53:42;42.55;37.71;48.82;;
71628;Laerm;59477;52.374;9.916;2023-02-28T01:55:45;45.40;38.24;51.51;;
71628;Laerm;59477;52.374;9.916;2023-02-28T01:57:48;43.16;37.35;51.01;;
71628;Laerm;59477;52.374;9.916;2023-02-28T01:59:53;55.12;39.87;64.65;;
71628;Laerm;59477;52.374;9.916;2023-02-28T02:01:55;50.79;40.70;59.16;;
71628;Laerm;59477;52.374;9.916;2023-02-28T02:03:57;46.61;36.50;60.31;;
71628;Laerm;59477;52.374;9.916;2023-02-28T02:05:59;43.20;38.92;48.86;;
71628;Laerm;59477;52.374;9.916;2023-02-28T02:08:02;40.84;35.94;46.62;;
71628;Laerm;59477;52.374;9.916;2023-02-28T02:10:14;40.98;35.87;45.86;;
71628;Laerm;59477;52.374;9.916;2023-02-28T02:13:00;44.76;38.25;57.45;;
71628;Laerm;59477;52.374;9.916;2023-02-28T02:19:05;44.83;38.85;50.49;;
71628;Laerm;59477;52.374;9.916;2023-02-28T02:25:34;43.14;35.93;52.72;;
71628;Laerm;59477;52.374;9.916;2023-02-28T02:34:23;53.65;41.88;62.75;;
71628;Laerm;59477;52.374;9.916;2023-02-28T02:36:37;45.78;40.11;54.03;;
71628;Laerm;59477;52.374;9.916;2023-02-28T02:40:46;43.96;37.38;53.63;;
71628;Laerm;59477;52.374;9.916;2023-02-28T02:42:51;53.81;38.95;62.15;;
71628;Laerm;59477;52.374;9.916;2023-02-28T02:44:55;47.28;39.48;56.92;;
71628;Laerm;59477;52.374;9.916;2023-02-28T02:46:59;53.00;41.74;60.01;;
71628;Laerm;59477;52.374;9.916;2023-02-28T02:49:04;43.08;37.23;47.80;;
71628;Laerm;59477;52.374;9.916;2023-02-28T02:51:10;42.60;35.20;48.73;;
71628;Laerm;59477;52.374;9.916;2023-02-28T02:53:13;45.16;34.57;57.66;;
71628;Laerm;59477;52.374;9.916;2023-02-28T02:55:16;46.95;41.80;55.98;;
71628;Laerm;59477;52.374;9.916;2023-02-28T02:57:22;51.58;40.07;62.47;;
71628;Laerm;59477;52.374;9.916;2023-02-28T02:59:23;50.68;40.85;62.51;;
71628;Laerm;59477;52.374;9.916;2023-02-28T03:01:24;64.26;49.83;73.24;;
71628;Laerm;59477;52.374;9.916;2023-02-28T03:03:29;56.18;38.39;68.60;;
71628;Laerm;59477;52.374;9.916;2023-02-28T03:05:35;44.40;39.25;50.76;;
71628;Laerm;59477;52.374;9.916;2023-02-28T03:07:39;58.64;45.59;67.33;;
71628;Laerm;59477;52.374;9.916;2023-02-28T03:09:40;48.08;39.34;57.39;;
71628;Laerm;59477;52.374;9.916;2023-02-28T03:11:41;43.60;38.61;50.51;;
71628;Laerm;59477;52.374;9.916;2023-02-28T03:14:04;58.84;38.49;67.91;;
71628;Laerm;59477;52.374;9.916;2023-02-28T03:18:21;44.50;37.92;56.50;;
71628;Laerm;59477;52.374;9.916;2023-02-28T03:24:54;43.20;37.10;50.89;;
71628;Laerm;59477;52.374;9.916;2023-02-28T03:26:58;43.79;38.31;52.40;;
71628;Laerm;59477;52.374;9.916;2023-02-28T03:33:17;48.49;39.08;61.30;;
71628;Laerm;59477;52.374;9.916;2023-02-28T03:35:23;45.89;41.02;52.11;;
71628;Laerm;59477;52.374;9.916;2023-02-28T03:37:25;50.41;41.22;56.82;;
71628;Laerm;59477;52.374;9.916;2023-02-28T03:41:36;56.16;47.10;66.73;;
71628;Laerm;59477;52.374;9.916;2023-02-28T03:43:40;56.95;43.90;64.68;;
71628;Laerm;59477;52.374;9.916;2023-02-28T03:45:42;54.78;47.63;64.01;;
71628;Laerm;59477;52.374;9.916;2023-02-28T03:47:54;56.41;46.95;65.11;;
71628;Laerm;59477;52.374;9.916;2023-02-28T03:50:05;49.36;39.73;58.16;;
71628;Laerm;59477;52.374;9.916;2023-02-28T03:52:08;50.10;43.74;58.97;;
71628;Laerm;59477;52.374;9.916;2023-02-28T03:54:09;57.23;43.85;64.64;;
71628;Laerm;59477;52.374;9.916;2023-02-28T04:00:37;52.79;46.85;58.20;;
71628;Laerm;59477;52.374;9.916;2023-02-28T04:02:38;51.47;43.18;63.22;;
71628;Laerm;59477;52.374;9.916;2023-02-28T04:04:39;53.78;45.03;62.74;;
71628;Laerm;59477;52.374;9.916;2023-02-28T04:06:45;56.83;44.52;69.19;;
71628;Laerm;59477;52.374;9.916;2023-02-28T04:08:46;48.00;43.20;56.46;;
71628;Laerm;59477;52.374;9.916;2023-02-28T04:10:48;60.49;42.56;72.64;;
71628;Laerm;59477;52.374;9.916;2023-02-28T04:12:51;53.63;42.87;64.76;;
71628;Laerm;59477;52.374;9.916;2023-02-28T04:14:51;46.45;39.92;51.66;;
71628;Laerm;59477;52.374;9.916;2023-02-28T04:16:52;48.39;42.18;58.84;;
71628;Laerm;59477;52.374;9.916;2023-02-28T04:18:53;57.53;44.25;69.08;;
71628;Laerm;59477;52.374;9.916;2023-02-28T04:20:53;48.21;43.01;56.07;;
71628;Laerm;59477;52.374;9.916;2023-02-28T04:22:54;59.74;42.82;69.01;;
71628;Laerm;59477;52.374;9.916;2023-02-28T04:24:55;48.84;41.07;60.79;;
71628;Laerm;59477;52.374;9.916;2023-02-28T04:26:56;49.37;42.62;56.73;;
71628;Laerm;59477;52.374;9.916;2023-02-28T04:28:57;49.37;42.77;58.79;;
71628;Laerm;59477;52.374;9.916;2023-02-28T04:30:59;56.99;46.47;67.48;;
71628;Laerm;59477;52.374;9.916;2023-02-28T04:33:00;61.49;44.29;71.28;;
71628;Laerm;59477;52.374;9.916;2023-02-28T04:35:00;50.80;43.92;60.01;;
71628;Laerm;59477;52.374;9.916;2023-02-28T04:37:01;54.10;46.36;62.99;;
71628;Laerm;59477;52.374;9.916;2023-02-28T04:39:02;59.94;45.16;69.99;;
71628;Laerm;59477;52.374;9.916;2023-02-28T04:41:05;51.95;46.19;61.14;;
71628;Laerm;59477;52.374;9.916;2023-02-28T04:43:05;53.90;45.33;64.44;;
71628;Laerm;59477;52.374;9.916;2023-02-28T04:45:06;48.83;44.03;54.67;;
71628;Laerm;59477;52.374;9.916;2023-02-28T04:47:07;59.10;46.11;66.73;;
71628;Laerm;59477;52.374;9.916;2023-02-28T04:49:08;51.04;43.31;58.14;;
71628;Laerm;59477;52.374;9.916;2023-02-28T04:51:09;50.66;43.45;56.77;;
71628;Laerm;59477;52.374;9.916;2023-02-28T04:53:11;49.51;44.71;56.32;;
71628;Laerm;59477;52.374;9.916;2023-02-28T04:55:11;52.77;48.22;58.98;;
71628;Laerm;59477;52.374;9.916;2023-02-28T04:57:12;59.61;46.06;70.19;;
71628;Laerm;59477;52.374;9.916;2023-02-28T04:59:12;53.44;48.60;59.11;;
71628;Laerm;59477;52.374;9.916;2023-02-28T05:01:23;54.09;49.41;60.14;;
71628;Laerm;59477;52.374;9.916;2023-02-28T05:03:24;53.55;46.41;64.59;;
71628;Laerm;59477;52.374;9.916;2023-02-28T05:05:25;53.25;47.26;64.97;;
71628;Laerm;59477;52.374;9.916;2023-02-28T05:07:25;51.61;45.48;57.36;;
71628;Laerm;59477;52.374;9.916;2023-02-28T05:09:26;52.72;48.18;58.35;;
71628;Laerm;59477;52.374;9.916;2023-02-28T05:11:28;51.96;46.71;58.25;;
71628;Laerm;59477;52.374;9.916;2023-02-28T05:13:29;55.97;49.15;61.75;;
71628;Laerm;59477;52.374;9.916;2023-02-28T05:15:30;53.27;49.21;58.32;;
71628;Laerm;59477;52.374;9.916;2023-02-28T05:17:31;56.79;51.22;64.05;;
71628;Laerm;59477;52.374;9.916;2023-02-28T05:19:31;56.04;50.14;61.36;;
71628;Laerm;59477;52.374;9.916;2023-02-28T05:21:35;53.73;49.80;58.55;;
71628;Laerm;59477;52.374;9.916;2023-02-28T05:23:37;55.26;49.75;60.44;;
71628;Laerm;59477;52.374;9.916;2023-02-28T05:25:37;56.73;51.91;63.79;;
71628;Laerm;59477;52.374;9.916;2023-02-28T05:27:38;56.77;52.13;62.22;;
71628;Laerm;59477;52.374;9.916;2023-02-28T05:29:38;54.94;50.93;61.07;;
71628;Laerm;59477;52.374;9.916;2023-02-28T05:31:42;54.12;50.37;58.14;;
71628;Laerm;59477;52.374;9.916;2023-02-28T05:33:42;57.41;52.32;79.48;;
71628;Laerm;59477;52.374;9.916;2023-02-28T05:35:43;55.85;50.67;61.47;;
71628;Laerm;59477;52.374;9.916;2023-02-28T05:37:44;55.88;50.38;61.81;;
71628;Laerm;59477;52.374;9.916;2023-02-28T05:39:44;57.77;50.48;65.54;;
71628;Laerm;59477;52.374;9.916;2023-02-28T05:41:45;56.82;51.78;64.35;;
71628;Laerm;59477;52.374;9.916;2023-02-28T05:43:46;53.89;50.39;58.18;;
71628;Laerm;59477;52.374;9.916;2023-02-28T05:45:47;54.29;50.47;60.75;;
71628;Laerm;59477;52.374;9.916;2023-02-28T05:47:47;55.88;51.28;60.66;;
71628;Laerm;59477;52.374;9.916;2023-02-28T05:49:48;56.16;51.58;70.03;;
71628;Laerm;59477;52.374;9.916;2023-02-28T05:51:48;56.84;50.72;72.28;;
71628;Laerm;59477;52.374;9.916;2023-02-28T05:53:49;54.42;49.74;59.77;;
71628;Laerm;59477;52.374;9.916;2023-02-28T05:55:49;54.73;50.59;59.56;;
71628;Laerm;59477;52.374;9.916;2023-02-28T05:57:50;53.89;49.11;58.96;;
71628;Laerm;59477;52.374;9.916;2023-02-28T05:59:50;56.23;50.45;60.74;;
71628;Laerm;59477;52.374;9.916;2023-02-28T06:01:51;55.25;51.61;59.24;;
71628;Laerm;59477;52.374;9.916;2023-02-28T06:03:53;54.83;50.75;59.36;;
71628;Laerm;59477;52.374;9.916;2023-02-28T06:05:55;55.95;49.54;61.59;;
71628;Laerm;59477;52.374;9.916;2023-02-28T06:07:55;56.73;52.38;62.52;;
71628;Laerm;59477;52.374;9.916;2023-02-28T06:09:56;55.33;50.67;62.37;;
71628;Laerm;59477;52.374;9.916;2023-02-28T06:12:00;56.49;52.10;61.27;;
71628;Laerm;59477;52.374;9.916;2023-02-28T06:14:03;55.56;51.33;60.03;;
71628;Laerm;59477;52.374;9.916;2023-02-28T06:16:04;56.17;51.80;65.93;;
71628;Laerm;59477;52.374;9.916;2023-02-28T06:18:04;55.89;52.18;62.30;;
71628;Laerm;59477;52.374;9.916;2023-02-28T06:20:05;57.03;52.32;65.16;;
71628;Laerm;59477;52.374;9.916;2023-02-28T06:22:24;58.05;53.04;63.49;;
71628;Laerm;59477;52.374;9.916;2023-02-28T06:24:25;57.68;53.29;65.76;;
71628;Laerm;59477;52.374;9.916;2023-02-28T06:26:28;56.48;52.19;62.28;;
71628;Laerm;59477;52.374;9.916;2023-02-28T06:28:28;57.43;52.91;61.63;;
71628;Laerm;59477;52.374;9.916;2023-02-28T06:30:29;58.59;53.51;63.96;;
71628;Laerm;59477;52.374;9.916;2023-02-28T06:32:34;58.97;52.60;65.12;;
71628;Laerm;59477;52.374;9.916;2023-02-28T06:34:36;59.76;53.04;67.68;;
71628;Laerm;59477;52.374;9.916;2023-02-28T06:36:37;59.48;54.34;66.27;;
71628;Laerm;59477;52.374;9.916;2023-02-28T06:38:38;57.25;52.88;61.38;;
71628;Laerm;59477;52.374;9.916;2023-02-28T06:40:39;58.64;54.24;65.95;;
71628;Laerm;59477;52.374;9.916;2023-02-28T06:42:39;57.60;52.12;62.38;;
71628;Laerm;59477;52.374;9.916;2023-02-28T06:44:40;58.98;54.10;64.07;;
71628;Laerm;59477;52.374;9.916;2023-02-28T06:46:59;57.77;53.97;62.29;;
71628;Laerm;59477;52.374;9.916;2023-02-28T06:49:17;58.30;54.14;63.53;;
71628;Laerm;59477;52.374;9.916;2023-02-28T06:51:19;58.36;53.00;64.59;;
71628;Laerm;59477;52.374;9.916;2023-02-28T06:53:22;54.94;51.41;58.82;;
71628;Laerm;59477;52.374;9.916;2023-02-28T06:55:41;55.56;50.58;59.89;;
71628;Laerm;59477;52.374;9.916;2023-02-28T06:57:42;56.76;52.65;62.00;;
71628;Laerm;59477;52.374;9.916;2023-02-28T06:59:42;58.03;53.25;71.79;;
71628;Laerm;59477;52.374;9.916;2023-02-28T07:02:01;57.29;52.20;68.21;;
71628;Laerm;59477;52.374;9.916;2023-02-28T07:04:02;57.19;51.87;62.82;;
71628;Laerm;59477;52.374;9.916;2023-02-28T07:06:04;56.99;53.58;63.92;;
71628;Laerm;59477;52.374;9.916;2023-02-28T07:08:23;57.01;52.74;61.34;;
71628;Laerm;59477;52.374;9.916;2023-02-28T07:10:42;57.51;52.11;61.60;;
71628;Laerm;59477;52.374;9.916;2023-02-28T07:12:43;55.76;51.06;66.27;;
71628;Laerm;59477;52.374;9.916;2023-02-28T07:15:02;54.96;50.43;59.69;;
71628;Laerm;59477;52.374;9.916;2023-02-28T07:17:03;57.20;52.24;74.42;;
71628;Laerm;59477;52.374;9.916;2023-02-28T07:19:22;57.89;53.17;66.15;;
71628;Laerm;59477;52.374;9.916;2023-02-28T07:21:22;56.71;51.60;62.72;;
71628;Laerm;59477;52.374;9.916;2023-02-28T07:23:23;56.36;51.93;63.08;;
71628;Laerm;59477;52.374;9.916;2023-02-28T07:25:25;58.77;52.64;64.74;;
71628;Laerm;59477;52.374;9.916;2023-02-28T07:27:44;57.04;51.23;65.07;;
71628;Laerm;59477;52.374;9.916;2023-02-28T07:30:03;59.19;51.86;67.54;;
71628;Laerm;59477;52.374;9.916;2023-02-28T07:32:04;55.87;51.76;64.04;;
71628;Laerm;59477;52.374;9.916;2023-02-28T07:34:23;57.03;50.94;65.41;;
71628;Laerm;59477;52.374;9.916;2023-02-28T07:36:42;58.92;51.64;64.59;;
71628;Laerm;59477;52.374;9.916;2023-02-28T07:38:43;56.16;50.09;66.74;;
71628;Laerm;59477;52.374;9.916;2023-02-28T07:40:44;56.15;51.44;63.35;;
71628;Laerm;59477;52.374;9.916;2023-02-28T07:42:44;58.30;48.76;66.21;;
71628;Laerm;59477;52.374;9.916;2023-02-28T07:44:45;54.87;49.23;60.70;;
71628;Laerm;59477;52.374;9.916;2023-02-28T07:46:46;54.82;48.93;62.13;;
71628;Laerm;59477;52.374;9.916;2023-02-28T07:48:47;59.48;51.77;65.37;;
71628;Laerm;59477;52.374;9.916;2023-02-28T07:50:57;55.13;50.49;62.13;;
71628;Laerm;59477;52.374;9.916;2023-02-28T07:52:58;56.73;51.79;61.83;;
71628;Laerm;59477;52.374;9.916;2023-02-28T07:54:59;54.87;48.29;60.41;;
71628;Laerm;59477;52.374;9.916;2023-02-28T07:57:18;55.69;48.96;62.18;;
71628;Laerm;59477;52.374;9.916;2023-02-28T07:59:37;52.11;46.36;59.77;;
71628;Laerm;59477;52.374;9.916;2023-02-28T08:01:38;52.02;46.69;59.94;;
71628;Laerm;59477;52.374;9.916;2023-02-28T08:03:39;52.47;46.87;60.81;;
71628;Laerm;59477;52.374;9.916;2023-02-28T08:05:39;51.47;46.62;60.79;;
71628;Laerm;59477;52.374;9.916;2023-02-28T08:07:40;50.90;46.64;61.87;;
71628;Laerm;59477;52.374;9.916;2023-02-28T08:09:59;50.91;46.90;61.40;;
71628;Laerm;59477;52.374;9.916;2023-02-28T08:12:00;52.13;48.65;56.86;;
71628;Laerm;59477;52.374;9.916;2023-02-28T08:14:00;51.90;47.98;57.72;;
71628;Laerm;59477;52.374;9.916;2023-02-28T08:16:01;53.51;49.26;59.11;;
71628;Laerm;59477;52.374;9.916;2023-02-28T08:18:02;55.88;49.49;63.57;;
71628;Laerm;59477;52.374;9.916;2023-02-28T08:20:02;53.46;48.59;60.83;;
71628;Laerm;59477;52.374;9.916;2023-02-28T08:22:04;53.73;48.00;62.91;;
71628;Laerm;59477;52.374;9.916;2023-02-28T08:24:05;54.71;48.86;62.95;;
71628;Laerm;59477;52.374;9.916;2023-02-28T08:26:24;51.19;46.88;63.36;;
71628;Laerm;59477;52.374;9.916;2023-02-28T08:28:44;50.68;46.44;63.30;;
71628;Laerm;59477;52.374;9.916;2023-02-28T08:31:06;50.39;46.03;57.79;;
71628;Laerm;59477;52.374;9.916;2023-02-28T08:33:07;49.36;46.07;54.59;;
71628;Laerm;59477;52.374;9.916;2023-02-28T08:35:26;49.76;45.95;59.01;;
71628;Laerm;59477;52.374;9.916;2023-02-28T08:37:27;49.25;44.34;62.22;;
71628;Laerm;59477;52.374;9.916;2023-02-28T08:39:46;51.99;45.44;67.03;;
71628;Laerm;59477;52.374;9.916;2023-02-28T08:41:46;49.00;44.45;58.49;;
71628;Laerm;59477;52.374;9.916;2023-02-28T08:43:47;50.58;44.75;58.39;;
71628;Laerm;59477;52.374;9.916;2023-02-28T08:46:06;53.86;45.50;63.28;;
71628;Laerm;59477;52.374;9.916;2023-02-28T08:48:07;50.35;42.93;59.78;;
71628;Laerm;59477;52.374;9.916;2023-02-28T08:50:08;50.95;43.42;59.92;;
71628;Laerm;59477;52.374;9.916;2023-02-28T08:52:08;50.98;42.39;61.84;;
71628;Laerm;59477;52.374;9.916;2023-02-28T08:54:09;48.81;41.57;57.43;;
71628;Laerm;59477;52.374;9.916;2023-02-28T08:56:14;52.96;41.30;66.55;;
71628;Laerm;59477;52.374;9.916;2023-02-28T08:58:16;49.01;40.49;63.84;;
71628;Laerm;59477;52.374;9.916;2023-02-28T09:00:17;52.69;41.65;61.12;;
71628;Laerm;59477;52.374;9.916;2023-02-28T09:02:17;46.54;40.04;60.78;;
71628;Laerm;59477;52.374;9.916;2023-02-28T09:04:18;52.16;43.26;61.97;;
71628;Laerm;59477;52.374;9.916;2023-02-28T09:06:37;45.99;39.37;59.62;;
71628;Laerm;59477;52.374;9.916;2023-02-28T09:08:38;46.22;40.19;55.84;;
71628;Laerm;59477;52.374;9.916;2023-02-28T09:10:39;46.39;40.46;52.86;;
71628;Laerm;59477;52.374;9.916;2023-02-28T09:12:39;47.44;41.74;58.81;;
71628;Laerm;59477;52.374;9.916;2023-02-28T09:14:40;53.71;42.78;64.64;;
71628;Laerm;59477;52.374;9.916;2023-02-28T09:16:40;46.64;42.58;55.53;;
71628;Laerm;59477;52.374;9.916;2023-02-28T09:18:41;50.03;42.12;60.13;;
71628;Laerm;59477;52.374;9.916;2023-02-28T09:20:42;48.86;40.89;61.25;;
71628;Laerm;59477;52.374;9.916;2023-02-28T09:22:43;50.62;41.04;61.65;;
71628;Laerm;59477;52.374;9.916;2023-02-28T09:25:02;51.46;42.35;60.05;;
71628;Laerm;59477;52.374;9.916;2023-02-28T09:27:22;48.40;40.52;61.28;;
71628;Laerm;59477;52.374;9.916;2023-02-28T09:29:22;49.45;40.08;58.74;;
71628;Laerm;59477;52.374;9.916;2023-02-28T09:31:24;52.08;42.18;61.82;;
71628;Laerm;59477;52.374;9.916;2023-02-28T09:33:25;47.52;40.87;65.77;;
71628;Laerm;59477;52.374;9.916;2023-02-28T09:35:26;50.86;42.35;74.15;;
71628;Laerm;59477;52.374;9.916;2023-02-28T09:37:27;52.78;41.10;61.19;;
71628;Laerm;59477;52.374;9.916;2023-02-28T09:39:31;48.35;40.68;62.73;;
71628;Laerm;59477;52.374;9.916;2023-02-28T09:41:36;53.72;42.71;62.20;;
71628;Laerm;59477;52.374;9.916;2023-02-28T09:43:40;48.03;40.83;61.93;;
71628;Laerm;59477;52.374;9.916;2023-02-28T09:45:47;45.90;40.03;54.90;;
71628;Laerm;59477;52.374;9.916;2023-02-28T09:47:48;50.88;41.47;64.49;;
71628;Laerm;59477;52.374;9.916;2023-02-28T09:49:51;47.30;41.99;55.45;;
71628;Laerm;59477;52.374;9.916;2023-02-28T09:52:05;49.21;39.28;59.57;;
71628;Laerm;59477;52.374;9.916;2023-02-28T09:54:11;51.09;43.46;59.31;;
71628;Laerm;59477;52.374;9.916;2023-02-28T09:56:33;49.48;42.04;57.56;;
71628;Laerm;59477;52.374;9.916;2023-02-28T09:58:53;49.80;41.01;60.70;;
71628;Laerm;59477;52.374;9.916;2023-02-28T10:05:35;54.17;44.20;66.99;;
71628;Laerm;59477;52.374;9.916;2023-02-28T10:07:46;47.80;40.89;59.67;;
71628;Laerm;59477;52.374;9.916;2023-02-28T10:09:52;48.99;43.93;57.58;;
71628;Laerm;59477;52.374;9.916;2023-02-28T10:12:11;49.00;42.69;56.42;;
71628;Laerm;59477;52.374;9.916;2023-02-28T10:14:15;50.36;43.65;57.19;;
71628;Laerm;59477;52.374;9.916;2023-02-28T10:16:21;50.79;43.30;58.86;;
71628;Laerm;59477;52.374;9.916;2023-02-28T10:18:24;56.68;39.80;66.56;;
71628;Laerm;59477;52.374;9.916;2023-02-28T10:20:25;49.04;39.06;59.89;;
71628;Laerm;59477;52.374;9.916;2023-02-28T10:24:53;46.90;40.92;67.88;;
71628;Laerm;59477;52.374;9.916;2023-02-28T10:27:13;47.36;39.55;62.75;;
71628;Laerm;59477;52.374;9.916;2023-02-28T10:29:14;48.40;41.37;61.86;;
71628;Laerm;59477;52.374;9.916;2023-02-28T10:31:17;44.32;39.22;53.82;;
71628;Laerm;59477;52.374;9.916;2023-02-28T10:33:36;53.58;41.20;64.84;;
71628;Laerm;59477;52.374;9.916;2023-02-28T10:35:56;49.64;40.74;58.52;;
71628;Laerm;59477;52.374;9.916;2023-02-28T10:37:58;47.40;40.01;59.52;;
71628;Laerm;59477;52.374;9.916;2023-02-28T10:39:59;46.09;41.28;55.88;;
71628;Laerm;59477;52.374;9.916;2023-02-28T10:41:59;47.74;40.65;58.76;;
71628;Laerm;59477;52.374;9.916;2023-02-28T10:44:20;46.37;39.22;60.16;;
71628;Laerm;59477;52.374;9.916;2023-02-28T10:46:21;47.47;41.89;63.11;;
71628;Laerm;59477;52.374;9.916;2023-02-28T10:48:34;49.65;41.23;60.01;;
71628;Laerm;59477;52.374;9.916;2023-02-28T10:50:55;47.77;40.46;55.85;;
71628;Laerm;59477;52.374;9.916;2023-02-28T10:55:26;49.66;40.92;60.17;;
71628;Laerm;59477;52.374;9.916;2023-02-28T10:57:27;50.90;40.08;62.69;;
71628;Laerm;59477;52.374;9.916;2023-02-28T10:59:52;50.03;41.43;60.66;;
71628;Laerm;59477;52.374;9.916;2023-02-28T11:02:33;53.26;41.26;64.37;;
71628;Laerm;59477;52.374;9.916;2023-02-28T11:04:35;48.79;40.58;59.44;;
71628;Laerm;59477;52.374;9.916;2023-02-28T11:06:42;53.20;40.89;61.26;;
71628;Laerm;59477;52.374;9.916;2023-02-28T11:08:44;44.95;40.06;56.96;;
71628;Laerm;59477;52.374;9.916;2023-02-28T11:10:46;47.99;41.75;60.11;;
71628;Laerm;59477;52.374;9.916;2023-02-28T11:12:48;49.40;40.94;65.71;;
71628;Laerm;59477;52.374;9.916;2023-02-28T11:14:50;50.04;43.36;61.66;;
71628;Laerm;59477;52.374;9.916;2023-02-28T11:16:52;51.88;43.65;68.43;;
71628;Laerm;59477;52.374;9.916;2023-02-28T11:19:16;55.04;42.70;65.75;;
71628;Laerm;59477;52.374;9.916;2023-02-28T11:21:23;48.54;40.29;61.05;;
71628;Laerm;59477;52.374;9.916;2023-02-28T11:23:25;48.62;41.28;60.07;;
71628;Laerm;59477;52.374;9.916;2023-02-28T11:25:32;47.36;41.20;58.88;;
71628;Laerm;59477;52.374;9.916;2023-02-28T11:29:37;52.68;40.50;68.88;;
71628;Laerm;59477;52.374;9.916;2023-02-28T11:34:22;47.09;39.55;58.34;;
71628;Laerm;59477;52.374;9.916;2023-02-28T11:36:24;47.27;38.53;58.63;;
71628;Laerm;59477;52.374;9.916;2023-02-28T11:38:26;44.08;38.40;52.90;;
71628;Laerm;59477;52.374;9.916;2023-02-28T11:40:31;55.27;41.29;69.52;;
71628;Laerm;59477;52.374;9.916;2023-02-28T11:47:00;52.64;43.41;61.73;;
71628;Laerm;59477;52.374;9.916;2023-02-28T12:08:42;52.67;43.92;69.66;;
71628;Laerm;59477;52.374;9.916;2023-02-28T12:11:10;51.64;43.46;63.21;;
71628;Laerm;59477;52.374;9.916;2023-02-28T12:15:35;47.84;41.23;66.44;;
71628;Laerm;59477;52.374;9.916;2023-02-28T12:28:04;46.85;40.19;60.32;;
71628;Laerm;59477;52.374;9.916;2023-02-28T12:30:15;50.84;41.58;65.59;;
71628;Laerm;59477;52.374;9.916;2023-02-28T12:32:20;48.18;40.90;62.93;;
71628;Laerm;59477;52.374;9.916;2023-02-28T12:34:23;47.98;41.42;61.02;;
71628;Laerm;59477;52.374;9.916;2023-02-28T12:36:44;62.03;40.88;91.99;;
71628;Laerm;59477;52.374;9.916;2023-02-28T12:39:26;51.87;43.97;63.86;;
71628;Laerm;59477;52.374;9.916;2023-02-28T12:43:30;47.24;41.00;61.48;;
71628;Laerm;59477;52.374;9.916;2023-02-28T12:45:40;48.84;41.57;59.75;;
71628;Laerm;59477;52.374;9.916;2023-02-28T12:47:42;50.07;43.84;64.69;;
71628;Laerm;59477;52.374;9.916;2023-02-28T12:50:05;51.39;42.02;69.80;;
71628;Laerm;59477;52.374;9.916;2023-02-28T12:52:05;47.73;41.50;57.42;;
71628;Laerm;59477;52.374;9.916;2023-02-28T12:54:37;48.51;41.69;61.36;;
71628;Laerm;59477;52.374;9.916;2023-02-28T12:56:48;48.50;40.79;62.94;;
71628;Laerm;59477;52.374;9.916;2023-02-28T13:03:46;48.30;42.12;57.03;;
71628;Laerm;59477;52.374;9.916;2023-02-28T13:06:05;45.91;40.05;57.70;;
71628;Laerm;59477;52.374;9.916;2023-02-28T13:12:57;45.07;38.65;57.58;;
71628;Laerm;59477;52.374;9.916;2023-02-28T13:15:24;45.72;40.05;55.88;;